Posh Pelican — 9V7602 — position and weather

sailwx.info

Track history (hours):
 
Tides and Currents Weather Stations Pressure Air Temp Water Temp Dewpoint Dewpoint Depression Visibility Wind Speed Wind Dir Waves Ship Positions

Posh Pelican

Last reported at 2018-Jan-19 13:00 UTC. Time now 2018-Jan-19 13:30 UTC.
Position S 05°17' E 011°23'.

Length 79 m; draft 5 m.

Type: Tug. MMSI: 563712000.

Date/timePositionNaut miles runAvg speedWind from/ knotsBaromVisibWave heightAir tempDewpointWater temp
2018-Jan-19 13:00S 05°17' E 011°23'0 0.2
2018-Jan-19 12:30S 05°17' E 011°23'0 0.0
2018-Jan-19 12:00S 05°17' E 011°23'0 0.0
2018-Jan-19 11:29S 05°17' E 011°23'0 0.0
2018-Jan-19 11:00S 05°17' E 011°23'0 0.0
2018-Jan-19 10:29S 05°17' E 011°23'0 0.1
2018-Jan-19 10:00S 05°17' E 011°23'0 0.1
2018-Jan-19 09:30S 05°18' E 011°23'0 0.2
2018-Jan-19 09:00S 05°18' E 011°23'0 0.0
2018-Jan-19 08:30S 05°18' E 011°23'0 0.1
2018-Jan-19 07:59S 05°18' E 011°23'2 4.2
2018-Jan-19 07:30S 05°19' E 011°24'0 0.6
2018-Jan-19 06:59S 05°20' E 011°24'0 0.1
2018-Jan-19 06:27S 05°20' E 011°24'0 0.4
2018-Jan-19 05:59S 05°20' E 011°24'0 0.3
2018-Jan-19 05:28S 05°20' E 011°24'0 0.0
2018-Jan-19 04:59S 05°20' E 011°24'0 0.2
2018-Jan-19 04:30S 05°20' E 011°24'0 0.4
2018-Jan-19 04:00S 05°20' E 011°24'0 0.5
2018-Jan-19 03:28S 05°19' E 011°24'1 1.2
2018-Jan-19 03:00S 05°19' E 011°24'2 4.2
2018-Jan-19 02:30S 05°17' E 011°25'3 6.2
2018-Jan-19 01:59S 05°14' E 011°26'3 6.2
2018-Jan-19 01:30S 05°11' E 011°27'3 6.2
2018-Jan-19 00:58S 05°08' E 011°29'  
2018-Jan-12 03:18S 05°04' E 011°31'2 5.7
2018-Jan-12 03:00S 05°06' E 011°31'4 5.7
2018-Jan-12 02:22S 05°09' E 011°29'3 6.0
2018-Jan-12 01:55S 05°11' E 011°27'4 5.8
2018-Jan-12 01:18S 05°14' E 011°25'2 5.6
2018-Jan-12 01:00S 05°16' E 011°24'2 3.8
2018-Jan-12 00:30S 05°17' E 011°23'0 0.1
2018-Jan-12 00:00S 05°17' E 011°23'0 0.0
2018-Jan-11 23:28S 05°17' E 011°23'0 0.4
2018-Jan-11 22:59S 05°17' E 011°23'0 0.1
2018-Jan-11 22:28S 05°17' E 011°23'0 0.0
2018-Jan-11 21:59S 05°17' E 011°23'0 0.5
2018-Jan-11 21:30S 05°18' E 011°23'0 0.5
2018-Jan-11 21:00S 05°17' E 011°24'2 3.2
2018-Jan-11 20:30S 05°19' E 011°25'3 6.2
2018-Jan-11 20:00S 05°21' E 011°27'2 4.8
2018-Jan-11 19:30S 05°23' E 011°28'0 0.3
2018-Jan-11 19:00S 05°23' E 011°28'0 0.0
2018-Jan-11 18:30S 05°23' E 011°28'0 0.1
2018-Jan-11 18:00S 05°23' E 011°28'0 0.3
2018-Jan-11 17:30S 05°23' E 011°28'0 0.2
2018-Jan-11 16:59S 05°23' E 011°28'0 0.2
2018-Jan-11 16:30S 05°23' E 011°28'0 0.0
2018-Jan-11 16:00S 05°23' E 011°28'0 0.0
2018-Jan-11 15:29S 05°23' E 011°28'0 0.0
2018-Jan-11 15:00S 05°23' E 011°28'0 0.1
2018-Jan-11 14:30S 05°23' E 011°28'0 0.0
2018-Jan-11 13:57S 05°23' E 011°28'0 0.0
2018-Jan-11 13:30S 05°23' E 011°28'0 0.1
2018-Jan-11 13:00S 05°23' E 011°28'0 0.0
2018-Jan-11 12:30S 05°23' E 011°28'0 0.0
2018-Jan-11 12:00S 05°23' E 011°28'0 0.0
2018-Jan-11 11:30S 05°23' E 011°28'0 0.0
2018-Jan-11 11:00S 05°23' E 011°28'0 0.1
2018-Jan-11 10:30S 05°23' E 011°28'0 0.0
2018-Jan-11 10:00S 05°23' E 011°28'0 0.2
2018-Jan-11 09:30S 05°23' E 011°28'0 0.6
2018-Jan-11 09:00S 05°23' E 011°28'0 0.0
2018-Jan-11 08:31S 05°23' E 011°28'0 0.0
2018-Jan-11 08:00S 05°23' E 011°28'0 0.0
2018-Jan-11 07:30S 05°23' E 011°28'0 0.0
2018-Jan-11 06:59S 05°23' E 011°28'0 0.0
2018-Jan-11 06:29S 05°23' E 011°28'0 0.0
2018-Jan-11 05:58S 05°23' E 011°28'0 0.5
2018-Jan-11 05:30S 05°23' E 011°27'1 1.1
2018-Jan-11 05:00S 05°22' E 011°28'0 0.7
2018-Jan-11 04:30S 05°22' E 011°28'3 6.5
2018-Jan-11 04:00S 05°19' E 011°28'3 6.8
2018-Jan-11 03:31S 05°15' E 011°28'3 6.8
2018-Jan-11 03:00S 05°12' E 011°29'7 0.5
2018-Jan-10 12:55S 05°05' E 011°30'4 8.7
2018-Jan-10 12:30S 05°09' E 011°29'4 8.7
2018-Jan-10 11:59S 05°13' E 011°29'2 0.7
2018-Jan-10 09:32S 05°15' E 011°29'0 0.8
2018-Jan-10 09:20S 05°15' E 011°29'0 0.8
2018-Jan-10 08:47S 05°16' E 011°28'0 0.7
2018-Jan-10 08:08S 05°16' E 011°28'0 0.8
2018-Jan-10 07:56S 05°16' E 011°28'0 0.8
2018-Jan-10 07:29S 05°16' E 011°28'0 0.7
2018-Jan-10 06:59S 05°17' E 011°28'0 0.6
2018-Jan-10 06:29S 05°17' E 011°28'0 0.5
2018-Jan-10 06:00S 05°17' E 011°28'1 1.8
2018-Jan-10 05:30S 05°16' E 011°28'1 2.9
2018-Jan-10 05:00S 05°16' E 011°26'0 0.4
2018-Jan-10 04:29S 05°16' E 011°26'0 0.4
2018-Jan-10 04:00S 05°16' E 011°27'0 0.6
2018-Jan-10 03:30S 05°16' E 011°26'0 0.7
2018-Jan-10 03:00S 05°16' E 011°26'1 1.1
2018-Jan-10 02:30S 05°16' E 011°26'0 0.4
2018-Jan-10 02:00S 05°16' E 011°26'0 0.3
2018-Jan-10 01:30S 05°15' E 011°26'0 0.3
2018-Jan-10 01:00S 05°15' E 011°26'0 0.5
2018-Jan-10 00:30S 05°15' E 011°26'0 1.0
2018-Jan-10 00:00S 05°15' E 011°26'1 1.0
2018-Jan-09 23:30S 05°14' E 011°26'0 1.0
2018-Jan-09 23:00S 05°13' E 011°25'1 1.0
2018-Jan-09 22:30S 05°13' E 011°25'0 0.9
2018-Jan-09 22:00S 05°13' E 011°25'1 1.1
2018-Jan-09 21:30S 05°12' E 011°25'0 0.7
2018-Jan-09 21:00S 05°12' E 011°25'0 0.7
2018-Jan-09 20:30S 05°12' E 011°26'0 0.5
2018-Jan-09 20:00S 05°12' E 011°26'0 0.9
2018-Jan-09 19:30S 05°11' E 011°26'0 1.0
2018-Jan-09 19:00S 05°11' E 011°26'1 1.1
2018-Jan-09 18:30S 05°10' E 011°26'1 1.0
2018-Jan-09 18:00S 05°10' E 011°26'1 1.0
2018-Jan-09 17:30S 05°09' E 011°26'1 1.0
2018-Jan-09 17:00S 05°09' E 011°27'0 0.5
2018-Jan-09 16:29S 05°09' E 011°27'0 0.5
2018-Jan-09 16:00S 05°09' E 011°27'0 0.5
2018-Jan-09 15:25S 05°10' E 011°27'0 0.5
2018-Jan-09 15:00S 05°10' E 011°27'0 0.5
2018-Jan-09 14:23S 05°10' E 011°27'0 0.4
2018-Jan-09 14:00S 05°10' E 011°27'0 0.5
2018-Jan-09 13:30S 05°11' E 011°27'  
Track history (hours):
 
Tides and Currents Weather Stations Pressure Air Temp Water Temp Dewpoint Dewpoint Depression Visibility Wind Speed Wind Dir Waves Ship Positions

Posh Pelican

Last reported at 2018-Jan-19 13:00 UTC. Time now 2018-Jan-19 13:30 UTC.
Position S 05°17' E 011°23'.

Length 79 m; draft 5 m.

Type: Tug. MMSI: 563712000.

Date/timePositionNaut miles runAvg speedWind from/ knotsBaromVisibWave heightAir tempDewpointWater temp
2018-Jan-19 13:00S 05°17' E 011°23'0 0.2
2018-Jan-19 12:30S 05°17' E 011°23'0 0.0
2018-Jan-19 12:00S 05°17' E 011°23'0 0.0
2018-Jan-19 11:29S 05°17' E 011°23'0 0.0
2018-Jan-19 11:00S 05°17' E 011°23'0 0.0
2018-Jan-19 10:29S 05°17' E 011°23'0 0.1
2018-Jan-19 10:00S 05°17' E 011°23'0 0.1
2018-Jan-19 09:30S 05°18' E 011°23'0 0.2
2018-Jan-19 09:00S 05°18' E 011°23'0 0.0
2018-Jan-19 08:30S 05°18' E 011°23'0 0.1
2018-Jan-19 07:59S 05°18' E 011°23'2 4.2
2018-Jan-19 07:30S 05°19' E 011°24'0 0.6
2018-Jan-19 06:59S 05°20' E 011°24'0 0.1
2018-Jan-19 06:27S 05°20' E 011°24'0 0.4
2018-Jan-19 05:59S 05°20' E 011°24'0 0.3
2018-Jan-19 05:28S 05°20' E 011°24'0 0.0
2018-Jan-19 04:59S 05°20' E 011°24'0 0.2
2018-Jan-19 04:30S 05°20' E 011°24'0 0.4
2018-Jan-19 04:00S 05°20' E 011°24'0 0.5
2018-Jan-19 03:28S 05°19' E 011°24'1 1.2
2018-Jan-19 03:00S 05°19' E 011°24'2 4.2
2018-Jan-19 02:30S 05°17' E 011°25'3 6.2
2018-Jan-19 01:59S 05°14' E 011°26'3 6.2
2018-Jan-19 01:30S 05°11' E 011°27'3 6.2
2018-Jan-19 00:58S 05°08' E 011°29'  
2018-Jan-12 03:18S 05°04' E 011°31'2 5.7
2018-Jan-12 03:00S 05°06' E 011°31'4 5.7
2018-Jan-12 02:22S 05°09' E 011°29'3 6.0
2018-Jan-12 01:55S 05°11' E 011°27'4 5.8
2018-Jan-12 01:18S 05°14' E 011°25'2 5.6
2018-Jan-12 01:00S 05°16' E 011°24'2 3.8
2018-Jan-12 00:30S 05°17' E 011°23'0 0.1
2018-Jan-12 00:00S 05°17' E 011°23'0 0.0
2018-Jan-11 23:28S 05°17' E 011°23'0 0.4
2018-Jan-11 22:59S 05°17' E 011°23'0 0.1
2018-Jan-11 22:28S 05°17' E 011°23'0 0.0
2018-Jan-11 21:59S 05°17' E 011°23'0 0.5
2018-Jan-11 21:30S 05°18' E 011°23'0 0.5
2018-Jan-11 21:00S 05°17' E 011°24'2 3.2
2018-Jan-11 20:30S 05°19' E 011°25'3 6.2
2018-Jan-11 20:00S 05°21' E 011°27'2 4.8
2018-Jan-11 19:30S 05°23' E 011°28'0 0.3
2018-Jan-11 19:00S 05°23' E 011°28'0 0.0
2018-Jan-11 18:30S 05°23' E 011°28'0 0.1
2018-Jan-11 18:00S 05°23' E 011°28'0 0.3
2018-Jan-11 17:30S 05°23' E 011°28'0 0.2
2018-Jan-11 16:59S 05°23' E 011°28'0 0.2
2018-Jan-11 16:30S 05°23' E 011°28'0 0.0
2018-Jan-11 16:00S 05°23' E 011°28'0 0.0
2018-Jan-11 15:29S 05°23' E 011°28'0 0.0
2018-Jan-11 15:00S 05°23' E 011°28'0 0.1
2018-Jan-11 14:30S 05°23' E 011°28'0 0.0
2018-Jan-11 13:57S 05°23' E 011°28'0 0.0
2018-Jan-11 13:30S 05°23' E 011°28'0 0.1
2018-Jan-11 13:00S 05°23' E 011°28'0 0.0
2018-Jan-11 12:30S 05°23' E 011°28'0 0.0
2018-Jan-11 12:00S 05°23' E 011°28'0 0.0
2018-Jan-11 11:30S 05°23' E 011°28'0 0.0
2018-Jan-11 11:00S 05°23' E 011°28'0 0.1
2018-Jan-11 10:30S 05°23' E 011°28'0 0.0
2018-Jan-11 10:00S 05°23' E 011°28'0 0.2
2018-Jan-11 09:30S 05°23' E 011°28'0 0.6
2018-Jan-11 09:00S 05°23' E 011°28'0 0.0
2018-Jan-11 08:31S 05°23' E 011°28'0 0.0
2018-Jan-11 08:00S 05°23' E 011°28'0 0.0
2018-Jan-11 07:30S 05°23' E 011°28'0 0.0
2018-Jan-11 06:59S 05°23' E 011°28'0 0.0
2018-Jan-11 06:29S 05°23' E 011°28'0 0.0
2018-Jan-11 05:58S 05°23' E 011°28'0 0.5
2018-Jan-11 05:30S 05°23' E 011°27'1 1.1
2018-Jan-11 05:00S 05°22' E 011°28'0 0.7
2018-Jan-11 04:30S 05°22' E 011°28'3 6.5
2018-Jan-11 04:00S 05°19' E 011°28'3 6.8
2018-Jan-11 03:31S 05°15' E 011°28'3 6.8
2018-Jan-11 03:00S 05°12' E 011°29'7 0.5
2018-Jan-10 12:55S 05°05' E 011°30'4 8.7
2018-Jan-10 12:30S 05°09' E 011°29'4 8.7
2018-Jan-10 11:59S 05°13' E 011°29'2 0.7
2018-Jan-10 09:32S 05°15' E 011°29'0 0.8
2018-Jan-10 09:20S 05°15' E 011°29'0 0.8
2018-Jan-10 08:47S 05°16' E 011°28'0 0.7
2018-Jan-10 08:08S 05°16' E 011°28'0 0.8
2018-Jan-10 07:56S 05°16' E 011°28'0 0.8
2018-Jan-10 07:29S 05°16' E 011°28'0 0.7
2018-Jan-10 06:59S 05°17' E 011°28'0 0.6
2018-Jan-10 06:29S 05°17' E 011°28'0 0.5
2018-Jan-10 06:00S 05°17' E 011°28'1 1.8
2018-Jan-10 05:30S 05°16' E 011°28'1 2.9
2018-Jan-10 05:00S 05°16' E 011°26'0 0.4
2018-Jan-10 04:29S 05°16' E 011°26'0 0.4
2018-Jan-10 04:00S 05°16' E 011°27'0 0.6
2018-Jan-10 03:30S 05°16' E 011°26'0 0.7
2018-Jan-10 03:00S 05°16' E 011°26'1 1.1
2018-Jan-10 02:30S 05°16' E 011°26'0 0.4
2018-Jan-10 02:00S 05°16' E 011°26'0 0.3
2018-Jan-10 01:30S 05°15' E 011°26'0 0.3
2018-Jan-10 01:00S 05°15' E 011°26'0 0.5
2018-Jan-10 00:30S 05°15' E 011°26'0 1.0
2018-Jan-10 00:00S 05°15' E 011°26'1 1.0
2018-Jan-09 23:30S 05°14' E 011°26'0 1.0
2018-Jan-09 23:00S 05°13' E 011°25'1 1.0
2018-Jan-09 22:30S 05°13' E 011°25'0 0.9
2018-Jan-09 22:00S 05°13' E 011°25'1 1.1
2018-Jan-09 21:30S 05°12' E 011°25'0 0.7
2018-Jan-09 21:00S 05°12' E 011°25'0 0.7
2018-Jan-09 20:30S 05°12' E 011°26'0 0.5
2018-Jan-09 20:00S 05°12' E 011°26'0 0.9
2018-Jan-09 19:30S 05°11' E 011°26'0 1.0
2018-Jan-09 19:00S 05°11' E 011°26'1 1.1
2018-Jan-09 18:30S 05°10' E 011°26'1 1.0
2018-Jan-09 18:00S 05°10' E 011°26'1 1.0
2018-Jan-09 17:30S 05°09' E 011°26'1 1.0
2018-Jan-09 17:00S 05°09' E 011°27'0 0.5
2018-Jan-09 16:29S 05°09' E 011°27'0 0.5
2018-Jan-09 16:00S 05°09' E 011°27'0 0.5
2018-Jan-09 15:25S 05°10' E 011°27'0 0.5
2018-Jan-09 15:00S 05°10' E 011°27'0 0.5
2018-Jan-09 14:23S 05°10' E 011°27'0 0.4
2018-Jan-09 14:00S 05°10' E 011°27'0 0.5
2018-Jan-09 13:30S 05°11' E 011°27'  

Dump ship's entire track history